SVBC/BLA METAR and TAF weather

Enter ICAO airport designator
Station Type Date Time Source
SVBC METAR 2020/10/23 22:00 UTC NOAA

SVBC 232200Z 2400/2500 07005KT 9999F SVSA 232200Z 2400/2500 14003KT 9999 SCT020 TX33/2419Z TN21/2408Z TEMPO 2400/2404 17002KT 8000 +TSDZ OVC020


Station Type Date Time Source
SVBC Decoded METAR 2020/10/23 22:00 UTC NOAA

Barcelona, Venezuela (SVBC) 10-07N 064-41W 7M
Oct 23, 2020 - 06:00 PM EDT / 2020.10.23 2200 UTC
Wind: from the ENE (070 degrees) at 6 MPH (5 KT):0
Visibility: greater than 7 mile(s):0
Sky conditions: partly cloudy
Weather: sand
ob: SVBC 232200Z 2400/2500 07005KT 9999F SVSA 232200Z 2400/2500 14003KT 9999 SCT020 TX33/2419Z TN21/2408Z TEMPO 2400/2404 17002KT 8000 +TSDZ OVC020
cycle: 22

Station Type Date Time Source
SVBC TAF 2020/12/05 12:14 UTC NOAA

TAF SVBC 050400Z 0512/0612 06006KT 9999 SCT016 TX33/0518Z TN25/0508Z PROB30
TEMPO 0412/0416 14002KT 9000 -DZ BKN016

Example: see airport list